Latest Weather Observations for Wilsons Promontory

IDV60801

Issued at 1:35 pm EST Friday 19 September 2014 (issued every 30 minutes, with the page automatically refreshed every 10 minutes)

About weather observations | Map of weather stations | Latest weather observations for VIC | Other Formats
Station Details ID: 085096 Name: WILSONS PROMONTORY LIGHTHOUSE Lat: -39.13 Lon: 146.42 Height: 95.0 m
Data from the previous 72 hours. | See also: Recent months at Wilsons Promontory
Date/Time
EST
Temp
°C
App
Temp
°C
Dew
Point
Rel
Hum
%
Delta-T
°C
Wind Press
QNH
hPa
Press
MSL
hPa
Rain
since 9 am
mm
Dir
 
Spd
km/h
Gust
km/h
Spd
kts
Gust
kts
19/01:30pm 12.1 2.9 7.8 75 2.1 WSW 46 65 25 35 1020.3 - 0.0
19/01:24pm 11.5 0.7 7.8 78 1.8 WSW 54 72 29 39 1020.3 - 0.0
19/01:18pm 11.6 -0.6 7.5 76 2.0 WSW 61 72 33 39 1019.9 - 0.0
19/01:16pm 11.9 3.4 7.0 72 2.4 W 41 67 22 36 1020.2 - 0.0
19/01:00pm 12.9 4.5 7.4 69 2.7 W 41 57 22 31 1020.8 - 0.0
19/12:30pm 12.7 3.7 7.2 69 2.7 WSW 44 63 24 34 1020.8 - 0.0
19/12:05pm 12.2 2.7 6.5 68 2.7 W 46 65 25 35 1020.4 - 0.0
19/12:00pm 12.4 3.5 6.7 68 2.7 W 43 57 23 31 1020.4 1020.5 0.0
19/11:30am 12.2 2.1 7.5 73 2.3 WSW 50 69 27 37 1020.4 - 0.0
19/11:00am 12.6 2.0 7.1 69 2.7 WSW 52 72 28 39 1021.0 - 0.0
19/10:30am 12.2 2.1 7.5 73 2.3 WSW 50 69 27 37 1020.6 - 0.0
19/10:21am 12.3 1.0 7.0 70 2.6 WSW 56 74 30 40 1020.6 - 0.0
19/10:00am 12.1 0.2 6.8 70 2.5 WSW 59 72 32 39 1020.7 - 0.0
19/09:30am 12.2 2.7 6.7 69 2.6 W 46 69 25 37 1020.8 - 0.0
19/09:00am 12.1 3.1 7.2 72 2.4 W 44 65 24 35 1020.9 1021.0 1.0
19/08:30am 12.1 1.6 7.2 72 2.4 WSW 52 70 28 38 1020.7 - 1.0
19/08:19am 11.8 2.7 6.7 71 2.4 W 44 65 24 35 1020.5 - 1.0
19/08:10am 11.8 3.4 7.3 74 2.2 W 41 69 22 37 1020.6 - 1.0
19/08:00am 11.7 -1.3 7.0 73 2.3 WSW 65 72 35 39 1020.1 - 1.0
19/07:30am 11.6 2.9 7.5 76 2.0 W 43 63 23 34 1020.5 - 1.0
19/07:11am 11.3 2.2 6.8 74 2.1 W 44 63 24 34 1020.4 - 1.0
19/07:00am 11.4 1.5 6.5 72 2.3 W 48 63 26 34 1020.0 - 1.0
19/06:49am 11.4 2.4 6.5 72 2.3 W 43 80 23 43 1020.1 - 1.0
19/06:44am 11.5 -2.5 6.2 70 2.5 WSW 69 80 37 43 1019.4 - 1.0
19/06:33am 11.4 1.6 6.9 74 2.2 W 48 67 26 36 1019.7 - 1.0
19/06:30am 11.4 2.1 7.5 77 1.9 W 46 61 25 33 1020.0 - 1.0
19/06:00am 11.2 2.8 7.5 78 1.8 W 41 61 22 33 1019.7 1019.8 1.0
19/05:30am 11.0 1.3 7.5 79 1.7 W 48 67 26 36 1019.4 - 1.0
19/05:27am 10.9 1.6 7.4 79 1.7 W 46 67 25 36 1019.4 - 1.0
19/05:00am 11.2 2.0 8.1 81 1.5 W 46 59 25 32 1019.1 - 1.0
19/04:30am 10.9 2.0 7.6 80 1.6 W 44 65 24 35 1018.9 - 1.0
19/04:17am 10.8 -0.4 7.5 80 1.6 WSW 56 74 30 40 1019.0 - 1.0
19/04:13am 10.5 -3.3 6.8 78 1.8 WSW 69 74 37 40 1018.7 - 1.0
19/04:08am 10.9 1.8 7.0 77 1.9 W 44 63 24 34 1019.0 - 0.8
19/04:00am 11.1 2.1 7.4 78 1.8 W 44 59 24 32 1019.2 - 0.8
19/03:31am 11.0 1.9 6.9 76 2.0 W 44 63 24 34 1019.4 - 0.8
19/03:30am 11.1 1.7 7.0 76 2.0 W 46 63 25 34 1019.4 - 0.8
19/03:27am 10.9 1.8 6.8 76 1.9 W 44 63 24 34 1019.2 - 0.8
19/03:18am 11.0 1.9 6.9 76 2.0 W 44 72 24 39 1019.4 - 0.8
19/03:14am 11.1 -1.9 7.2 77 1.9 WSW 65 72 35 39 1019.2 - 0.8
19/03:12am 11.0 2.3 7.5 79 1.7 W 43 63 23 34 1019.4 - 0.8
19/03:00am 10.7 3.6 7.9 83 1.4 W 35 52 19 28 1019.8 1019.9 0.8
19/02:30am 10.4 2.4 7.6 83 1.3 W 39 57 21 31 1019.9 - 0.8
19/02:19am 10.6 2.7 7.7 82 1.4 W 39 57 21 31 1020.0 - 0.8
19/02:00am 10.6 2.9 7.3 80 1.6 W 37 50 20 27 1020.1 - 0.8
19/01:46am 10.8 2.4 7.5 80 1.6 W 41 59 22 32 1019.8 - 0.8
19/01:30am 10.5 1.8 7.6 82 1.4 W 43 57 23 31 1020.0 - 0.8
19/01:00am 9.8 -0.4 6.9 82 1.4 W 50 76 27 41 1020.0 - 0.8
19/12:55am 10.2 -1.2 7.4 83 1.3 WSW 57 76 31 41 1019.9 - 0.8
19/12:51am 10.1 -3.3 7.2 82 1.4 WSW 67 76 36 41 1019.6 - 0.8
19/12:43am 10.7 2.2 7.0 78 1.8 W 41 59 22 32 1020.3 - 0.2
19/12:30am 10.6 2.1 6.9 78 1.8 W 41 56 22 30 1020.2 - 0.2
19/12:03am 10.7 2.9 6.6 76 1.9 W 37 61 20 33 1020.3 - 0.2
19/12:00am 10.8 3.4 6.9 77 1.9 W 35 50 19 27 1020.6 1020.7 0.2
 
Date/Time
EST
Temp
°C
App
Temp
°C
Dew
Point
Rel
Hum
%
Delta-T
°C
Wind Press
QNH
hPa
Press
MSL
hPa
Rain
since 9 am
mm
Dir
 
Spd
km/h
Gust
km/h
Spd
kts
Gust
kts
18/11:30pm 10.0 2.0 5.6 74 2.0 W 37 57 20 31 1021.1 - 0.2
18/11:03pm 10.9 2.5 5.4 69 2.5 W 39 57 21 31 1021.0 - 0.0
18/11:00pm 11.0 3.0 5.5 69 2.5 W 37 52 20 28 1021.0 - 0.0
18/10:30pm 11.3 1.9 5.6 68 2.6 W 44 63 24 34 1021.1 - 0.0
18/10:03pm 11.2 1.2 4.2 62 3.1 WSW 46 65 25 35 1021.1 - 0.0
18/10:00pm 11.2 0.4 4.0 61 3.2 WSW 50 67 27 36 1020.9 - 0.0
18/09:51pm 11.3 -1.2 4.1 61 3.2 WSW 59 69 32 37 1020.7 - 0.0
18/09:32pm 11.3 2.3 4.3 62 3.2 W 41 63 22 34 1020.9 - 0.0
18/09:30pm 11.2 2.1 4.2 62 3.1 W 41 57 22 31 1021.1 - 0.0
18/09:26pm 11.0 1.3 3.8 61 3.2 W 44 63 24 34 1021.3 - 0.0
18/09:00pm 11.3 -0.7 4.5 63 3.1 WSW 57 70 31 38 1020.9 1021.0 0.0
18/08:30pm 11.1 -2.1 4.6 64 2.9 SW 63 72 34 39 1020.4 - 0.0
18/08:00pm 11.1 -1.4 4.3 63 3.1 WSW 59 76 32 41 1020.1 - 0.0
18/07:30pm 11.1 -2.0 4.8 65 2.9 WSW 63 78 34 42 1020.0 - 0.0
18/07:29pm 11.0 -3.0 4.0 62 3.1 WSW 67 78 36 42 1019.7 - 0.0
18/07:11pm 11.1 2.3 5.4 68 2.6 W 41 63 22 34 1020.2 - 0.0
18/07:00pm 11.1 1.6 4.8 65 2.9 WSW 44 61 24 33 1020.4 - 0.0
18/06:50pm 11.0 1.6 4.2 63 3.1 W 43 61 23 33 1020.3 - 0.0
18/06:30pm 10.9 1.3 4.6 65 2.9 W 44 59 24 32 1020.3 - 0.0
18/06:09pm 10.9 0.8 3.9 62 3.1 WSW 46 76 25 41 1020.0 - 0.0
18/06:00pm 10.9 -3.8 2.7 57 3.5 WSW 69 76 37 41 1019.4 1019.5 0.0
18/05:58pm 10.9 -3.9 3.0 58 3.4 WSW 70 78 38 42 1019.4 - 0.0
18/05:56pm 11.0 0.2 4.0 62 3.1 W 50 78 27 42 1019.6 - 0.0
18/05:46pm 11.0 -4.0 4.2 63 3.1 WSW 72 80 39 43 1019.3 - 0.0
18/05:30pm 11.2 1.3 4.7 64 3.0 W 46 80 25 43 1019.6 - 0.0
18/05:27pm 11.2 0.9 4.7 64 3.0 WSW 48 80 26 43 1019.3 - 0.0
18/05:25pm 11.3 2.1 5.4 67 2.7 W 43 80 23 43 1019.5 - 0.0
18/05:11pm 11.3 -1.4 5.2 66 2.8 WSW 61 80 33 43 1019.1 - 0.0
18/05:00pm 11.4 -2.8 5.9 69 2.6 WSW 70 80 38 43 1018.9 - 0.0
18/04:59pm 11.3 -3.4 5.6 68 2.6 WSW 72 80 39 43 1018.7 - 0.0
18/04:47pm 11.3 0.8 5.8 69 2.6 WSW 50 70 27 38 1018.9 - 0.0
18/04:30pm 11.1 0.8 6.3 72 2.3 WSW 50 67 27 36 1019.0 - 0.0
18/04:24pm 11.2 0.9 6.3 72 2.3 WSW 50 76 27 41 1018.8 - 0.0
18/04:18pm 11.1 -3.1 6.0 71 2.4 WSW 70 76 38 41 1018.6 - 0.0
18/04:00pm 11.0 1.0 6.2 72 2.3 W 48 69 26 37 1018.8 - 0.0
18/03:43pm 11.5 0.6 5.6 67 2.7 W 52 80 28 43 1018.4 - 0.0
18/03:42pm 11.5 1.0 5.8 68 2.7 W 50 80 27 43 1018.6 - 0.0
18/03:37pm 11.1 -3.2 5.4 68 2.6 WSW 70 80 38 43 1018.2 - 0.0
18/03:30pm 11.4 1.3 5.9 69 2.6 W 48 70 26 38 1018.5 - 0.0
18/03:24pm 11.5 0.3 5.8 68 2.7 WSW 54 72 29 39 1018.6 - 0.0
18/03:00pm 11.4 -0.9 5.1 65 2.9 WSW 59 74 32 40 1018.3 1018.4 0.0
18/02:30pm 11.3 0.3 5.0 65 2.9 WSW 52 74 28 40 1018.4 - 0.0
18/02:25pm 11.3 1.4 4.7 64 3.0 WSW 46 69 25 37 1018.4 - 0.0
18/02:00pm 11.9 3.4 5.1 63 3.1 W 39 52 21 28 1018.6 - 0.0
18/01:50pm 11.4 3.4 5.5 67 2.7 W 37 67 20 36 1018.8 - 0.0
18/01:30pm 11.2 -1.3 4.2 62 3.1 WSW 59 72 32 39 1018.2 - 0.0
18/01:15pm 11.7 1.3 4.0 59 3.5 WSW 48 67 26 36 1018.4 - 0.0
18/01:00pm 11.6 1.1 3.6 58 3.6 WSW 48 63 26 34 1018.6 - 0.0
18/12:54pm 11.6 2.0 4.3 61 3.3 WSW 44 65 24 35 1018.8 - 0.0
18/12:30pm 11.5 -2.2 4.0 60 3.4 SW 65 74 35 40 1018.4 - 0.0
18/12:00pm 11.4 -1.0 4.4 62 3.2 WSW 59 70 32 38 1018.6 1018.7 0.0
18/11:30am 10.8 -2.1 3.8 62 3.1 SW 61 69 33 37 1018.7 - 0.0
18/11:00am 10.9 -1.9 4.4 64 2.9 SW 61 70 33 38 1018.5 - 0.0
18/10:30am 11.2 -0.9 4.4 63 3.1 SW 57 67 31 36 1018.8 - 0.0
18/10:00am 11.0 -1.9 4.2 63 3.1 SW 61 70 33 38 1018.2 - 0.0
18/09:30am 11.0 -1.0 3.8 61 3.2 WSW 56 67 30 36 1018.5 - 0.0
18/09:00am 10.8 -1.4 2.4 56 3.6 WSW 56 70 30 38 1018.1 1018.2 4.0
18/08:30am 10.8 -2.9 1.9 54 3.8 WSW 63 74 34 40 1017.6 - 4.0
18/08:00am 10.8 -1.7 4.0 63 3.0 SW 59 69 32 37 1017.6 - 4.0
18/07:30am 10.6 -2.8 3.6 62 3.1 SW 63 72 34 39 1016.9 - 4.0
18/07:00am 10.4 -4.2 3.2 61 3.1 SW 69 80 37 43 1016.8 - 4.0
18/06:39am 10.2 -4.1 2.8 60 3.2 SW 67 76 36 41 1016.1 - 4.0
18/06:30am 10.1 0.8 3.2 62 3.0 SW 41 72 22 39 1015.9 - 4.0
18/06:29am 10.2 2.1 3.3 62 3.0 SW 35 72 19 39 1016.0 - 4.0
18/06:23am 10.1 -2.6 3.2 62 3.0 SW 59 78 32 42 1015.9 - 4.0
18/06:00am 10.1 -4.6 2.5 59 3.3 SW 69 78 37 42 1015.7 1015.8 4.0
18/05:30am 10.1 -4.0 3.8 65 2.8 SW 67 78 36 42 1015.5 - 4.0
18/05:00am 10.2 -3.9 3.7 64 2.9 SW 67 78 36 42 1015.0 - 4.0
18/04:30am 10.2 -1.8 3.5 63 2.9 SW 56 83 30 45 1014.3 - 4.0
18/04:14am 9.9 -2.9 4.5 69 2.4 SW 61 80 33 43 1014.1 - 4.0
18/04:00am 9.8 -4.6 4.0 67 2.6 SW 69 80 37 43 1014.1 - 4.0
18/03:30am 9.9 -6.1 2.7 61 3.1 SW 76 83 41 45 1013.7 - 4.0
18/03:00am 10.0 -5.4 3.7 65 2.8 SW 74 83 40 45 1013.6 1013.7 4.0
18/02:30am 9.9 -6.7 3.4 64 2.8 SW 80 95 43 51 1012.7 - 4.0
18/02:00am 9.7 -4.9 4.1 68 2.5 WSW 70 91 38 49 1013.4 - 4.0
18/01:30am 10.1 -3.8 4.9 70 2.4 WSW 67 85 36 46 1013.3 - 4.0
18/01:00am 9.7 -4.5 5.1 73 2.1 WSW 69 91 37 49 1013.0 - 4.0
18/12:57am 9.6 -4.6 5.0 73 2.1 WSW 69 93 37 50 1012.9 - 4.0
18/12:56am 9.7 -3.3 5.3 74 2.0 WSW 63 93 34 50 1013.2 - 4.0
18/12:50am 9.6 -8.1 5.0 73 2.1 WSW 87 93 47 50 1012.5 - 4.0
18/12:45am 9.4 -3.6 5.4 76 1.8 WSW 63 82 34 44 1013.2 - 4.0
18/12:43am 9.5 -2.7 5.7 77 1.7 WSW 59 74 32 40 1013.5 - 4.0
18/12:40am 9.5 0.7 5.7 77 1.7 W 41 69 22 37 1013.9 - 4.0
18/12:39am 9.5 1.1 5.7 77 1.7 W 39 67 21 36 1014.0 - 4.0
18/12:30am 8.9 -3.5 4.9 76 1.8 W 59 82 32 44 1013.7 - 4.0
18/12:22am 9.2 -4.2 5.4 77 1.7 W 65 87 35 47 1013.0 - 4.0
18/12:21am 9.2 -4.9 5.4 77 1.7 W 69 87 37 47 1012.8 - 4.0
18/12:13am 8.4 -5.8 5.2 80 1.4 SW 69 87 37 47 1012.9 - 4.0
18/12:11am 8.6 -5.8 5.2 79 1.5 SW 70 82 38 44 1013.1 - 4.0
18/12:09am 9.2 -1.6 5.9 80 1.5 WSW 52 70 28 38 1013.6 - 4.0
18/12:00am 8.6 -3.7 5.0 78 1.6 WSW 59 83 32 45 1013.4 1013.5 4.0
 
Date/Time
EST
Temp
°C
App
Temp
°C
Dew
Point
Rel
Hum
%
Delta-T
°C
Wind Press
QNH
hPa
Press
MSL
hPa
Rain
since 9 am
mm
Dir
 
Spd
km/h
Gust
km/h
Spd
kts
Gust
kts
17/11:51pm 7.8 -9.2 4.7 81 1.4 SW 83 102 45 55 1013.0 - 4.0
17/11:47pm 8.4 -10.1 4.8 78 1.6 SW 91 102 49 55 1012.0 - 3.8
17/11:46pm 8.5 -3.0 4.5 76 1.8 WSW 54 102 29 55 1012.5 - 3.8
17/11:30pm 8.1 -3.4 4.5 78 1.6 W 54 76 29 41 1013.2 - 3.8
17/11:09pm 7.4 -6.3 3.6 77 1.6 W 65 132 35 71 1013.1 - 3.4
17/11:06pm 6.8 -15.0 2.1 72 1.9 SW 106 132 57 71 1011.9 - 3.4
17/11:05pm 7.5 -7.2 2.4 70 2.1 WSW 69 132 37 71 1011.0 - 3.2
17/11:00pm 9.4 -4.2 4.2 70 2.3 WSW 65 91 35 49 1012.7 - 3.2
17/10:30pm 8.0 -4.0 4.6 79 1.5 W 57 104 31 56 1013.3 - 3.2
17/10:27pm 8.0 -3.5 4.6 79 1.5 W 54 107 29 58 1013.2 - 3.2
17/10:25pm 8.1 -3.3 4.7 79 1.5 W 54 107 29 58 1013.3 - 3.2
17/10:18pm 9.0 -7.1 4.4 73 2.0 WSW 78 107 42 58 1011.9 - 2.8
17/10:12pm 9.6 -6.7 5.0 73 2.1 WSW 80 89 43 48 1012.3 - 2.8
17/10:00pm 9.2 -2.6 4.6 73 2.1 WSW 56 80 30 43 1012.7 - 2.8
17/09:37pm 8.3 -2.4 4.7 78 1.6 W 50 95 27 51 1013.7 - 2.8
17/09:33pm 8.3 -3.5 4.7 78 1.6 W 56 96 30 52 1012.9 - 2.8
17/09:30pm 8.1 -7.9 4.5 78 1.6 WSW 78 96 42 52 1012.6 - 2.8
17/09:27pm 8.6 -8.1 5.2 79 1.5 WSW 82 96 44 52 1012.1 - 2.8
17/09:08pm 7.8 -2.9 4.6 80 1.4 W 50 107 27 58 1013.3 - 2.8
17/09:07pm 7.5 -4.4 4.3 80 1.4 W 56 107 30 58 1013.2 - 2.8
17/09:00pm 7.5 -10.7 3.9 78 1.6 SW 89 113 48 61 1012.4 1012.5 2.6
17/08:57pm 7.1 -12.4 3.2 76 1.7 SW 95 113 51 61 1011.7 - 2.6
17/08:55pm 6.8 -13.1 2.1 72 1.9 WSW 96 113 52 61 1011.5 - 2.4
17/08:54pm 8.5 -4.5 3.6 71 2.1 WSW 61 113 33 61 1011.8 - 2.4
17/08:30pm 8.3 -2.9 3.8 73 2.0 W 52 76 28 41 1012.6 - 2.4
17/08:27pm 8.4 -2.0 4.0 74 1.9 W 48 95 26 51 1012.9 - 2.2
17/08:20pm 7.9 -7.2 3.2 72 2.0 W 72 95 39 51 1012.7 - 2.2
17/08:19pm 7.9 -8.4 3.2 72 2.0 W 78 95 42 51 1012.2 - 2.2
17/08:17pm 8.6 -2.7 3.6 71 2.2 W 52 91 28 49 1012.7 - 2.0
17/08:15pm 8.6 -2.7 3.4 70 2.2 W 52 72 28 39 1013.0 - 1.8
17/08:06pm 9.7 -3.3 3.4 65 2.7 WSW 61 95 33 51 1012.4 - 1.6
17/08:03pm 9.9 -4.2 3.6 65 2.8 WSW 67 95 36 51 1011.8 - 1.6
17/08:00pm 9.8 -7.9 2.9 62 3.0 WSW 85 95 46 51 1011.2 - 1.6
17/07:40pm 9.9 -6.0 3.4 64 2.8 WSW 76 95 41 51 1011.8 - 1.6
17/07:38pm 9.8 -7.9 2.9 62 3.0 WSW 85 95 46 51 1011.3 - 1.6
17/07:33pm 9.8 -3.3 3.1 63 2.9 WSW 61 100 33 54 1011.8 - 1.6
17/07:30pm 9.8 -3.2 3.5 65 2.8 WSW 61 100 33 54 1011.7 - 1.6
17/07:28pm 9.8 -7.3 3.1 63 2.9 WSW 82 100 44 54 1011.4 - 1.6
17/07:23pm 9.8 -7.5 2.6 61 3.1 WSW 83 95 45 51 1011.2 - 1.6
17/07:13pm 9.6 -3.6 4.2 69 2.4 W 63 109 34 59 1011.4 - 1.6
17/07:06pm 9.9 -8.6 4.7 70 2.3 WSW 91 109 49 59 1010.2 - 1.6
17/07:03pm 10.2 -1.2 5.0 70 2.4 WSW 54 96 29 52 1010.7 - 1.6
17/07:00pm 10.1 -1.3 4.7 69 2.4 WSW 54 76 29 41 1011.9 - 1.6
17/06:52pm 9.8 -2.1 4.2 68 2.5 W 56 82 30 44 1011.6 - 1.6
17/06:50pm 9.9 -1.2 4.3 68 2.5 W 52 82 28 44 1011.6 - 1.6
17/06:30pm 9.7 -5.5 2.6 61 3.0 WSW 72 102 39 55 1011.1 - 1.6
17/06:10pm 9.8 -7.2 3.3 64 2.8 WSW 82 100 44 54 1010.4 - 1.6
17/06:00pm 9.8 -8.0 4.0 67 2.6 WSW 87 100 47 54 1009.9 1010.0 1.6
17/05:49pm 9.4 -9.7 3.4 66 2.6 WSW 93 98 50 53 1009.7 - 1.6
17/05:44pm 9.2 -4.0 4.2 71 2.2 WSW 63 107 34 58 1010.4 - 1.6
17/05:43pm 9.3 -4.3 4.3 71 2.2 WSW 65 107 35 58 1010.4 - 1.6
17/05:31pm 9.0 -10.0 3.8 70 2.3 SW 93 113 50 61 1008.5 - 1.6
17/05:30pm 9.5 -9.5 3.7 67 2.5 WSW 93 109 50 59 1009.0 - 1.6
17/05:07pm 9.6 -10.8 3.8 67 2.5 SW 100 120 54 65 1007.9 - 1.6
17/05:04pm 9.6 -11.0 2.5 61 3.0 SW 100 113 54 61 1008.0 - 1.6
17/05:00pm 10.4 -4.1 3.7 63 3.0 W 69 95 37 51 1008.8 - 1.6
17/04:48pm 10.4 -2.6 3.4 62 3.1 W 61 117 33 63 1008.9 - 1.6
17/04:47pm 10.5 -1.7 3.8 63 3.0 W 57 117 31 63 1009.2 - 1.6
17/04:38pm 10.3 -8.8 1.2 53 3.8 WSW 91 120 49 65 1007.5 - 1.6
17/04:35pm 10.3 -12.4 2.2 57 3.5 WSW 111 120 60 65 1007.0 - 1.6
17/04:30pm 10.2 -6.9 2.8 60 3.2 WSW 82 109 44 59 1008.0 - 1.6
17/04:00pm 10.5 -4.6 1.3 53 3.8 W 70 100 38 54 1007.5 - 1.6
17/03:51pm 10.2 -3.4 4.1 66 2.7 W 65 109 35 59 1008.2 - 1.6
17/03:31pm 10.3 -9.2 3.3 62 3.1 WSW 95 113 51 61 1007.3 - 1.6
17/03:30pm 10.4 -9.1 4.1 65 2.8 WSW 96 113 52 61 1007.4 - 1.6
17/03:28pm 10.3 -10.5 3.6 63 2.9 WSW 102 113 55 61 1006.9 - 1.6
17/03:00pm 10.6 -4.9 3.6 62 3.1 W 74 117 40 63 1007.7 1007.8 1.6
17/02:53pm 10.4 -4.3 2.5 58 3.4 W 69 117 37 63 1006.2 - 1.6
17/02:30pm 10.2 -3.5 3.9 65 2.8 W 65 93 35 50 1007.4 - 1.6
17/02:27pm 10.2 -3.4 4.1 66 2.7 W 65 93 35 50 1007.3 - 1.6
17/02:01pm 9.2 -1.8 5.2 76 1.8 W 52 72 28 39 1008.0 - 1.6
17/02:00pm 9.0 -2.3 5.2 77 1.7 W 54 69 29 37 1008.0 - 1.6
17/01:47pm 8.1 -4.8 3.9 75 1.8 W 61 106 33 57 1007.6 - 1.2
17/01:45pm 8.1 -4.8 3.9 75 1.8 W 61 106 33 57 1007.6 - 1.2
17/01:40pm 8.3 -8.8 3.8 73 2.0 WSW 83 106 45 57 1006.5 - 0.8
17/01:39pm 8.6 -9.6 4.0 73 2.0 WSW 89 106 48 57 1006.0 - 0.8
17/01:38pm 8.8 -4.5 4.0 72 2.1 W 63 106 34 57 1006.7 - 0.8
17/01:35pm 10.5 -2.2 5.3 70 2.4 W 61 82 33 44 1007.8 - 0.8
17/01:33pm 10.5 -3.7 5.3 70 2.4 W 69 82 37 44 1007.6 - 0.8
17/01:30pm 10.5 0.0 5.5 71 2.3 W 50 80 27 43 1007.8 - 0.8
17/01:23pm 10.4 1.3 5.8 73 2.1 W 43 80 23 43 1008.0 - 0.8
17/01:21pm 10.2 0.5 5.6 73 2.1 W 46 82 25 44 1007.9 - 0.8
17/01:00pm 11.2 -2.6 3.5 59 3.4 W 65 89 35 48 1007.4 - 0.8
17/12:56pm 11.2 -3.5 3.3 58 3.5 W 70 89 38 48 1007.3 - 0.8
17/12:54pm 11.3 -2.9 3.1 57 3.6 W 67 82 36 44 1007.3 - 0.8
17/12:50pm 11.3 1.8 4.1 61 3.2 W 43 74 23 40 1008.2 - 0.8
17/12:47pm 11.3 1.7 3.6 59 3.4 W 43 74 23 40 1008.3 - 0.8
17/12:30pm 11.4 -2.1 2.9 56 3.7 W 63 83 34 45 1007.8 - 0.8
17/12:00pm 11.6 0.8 5.9 68 2.7 W 52 74 28 40 1007.9 1008.0 0.8
17/11:30am 11.3 1.4 6.6 73 2.2 W 48 74 26 40 1007.9 - 0.8
17/11:00am 10.4 0.7 7.3 81 1.5 W 48 74 26 40 1008.1 - 0.8
17/10:42am 9.9 0.4 6.8 81 1.5 W 46 82 25 44 1007.9 - 0.8
17/10:36am 10.5 2.4 7.2 80 1.6 W 39 61 21 33 1008.4 - 0.8
17/10:30am 10.5 2.8 7.2 80 1.6 W 37 54 20 29 1008.5 - 0.8
17/10:01am 9.9 1.7 6.4 79 1.6 W 39 57 21 31 1008.8 - 0.8
17/10:00am 9.8 1.2 6.3 79 1.6 W 41 57 22 31 1008.7 - 0.8
17/09:30am 11.3 3.1 8.0 80 1.6 W 41 63 22 34 1008.7 - 0.6
17/09:00am 10.5 2.2 7.6 82 1.4 W 41 59 22 32 1008.7 1008.8 8.4
17/08:31am 10.2 1.9 7.6 84 1.3 W 41 59 22 32 1008.7 - 8.4
17/08:30am 10.2 1.5 7.6 84 1.3 W 43 59 23 32 1008.7 - 8.4
17/08:01am 10.7 2.0 7.8 82 1.4 W 43 63 23 34 1008.4 - 6.6
17/08:00am 10.6 1.9 7.7 82 1.4 W 43 59 23 32 1008.6 - 6.6
17/07:30am 10.1 2.1 7.5 84 1.2 WNW 39 59 21 32 1008.6 - 6.6
17/07:00am 9.4 2.6 6.7 83 1.3 WNW 32 50 17 27 1008.9 - 6.6
17/06:30am 9.8 1.7 7.2 84 1.2 W 39 59 21 32 1009.0 - 6.2
17/06:00am 9.4 0.2 6.5 82 1.4 W 44 63 24 34 1009.0 1009.1 5.6
17/05:30am 10.7 3.0 7.2 79 1.7 WNW 37 59 20 32 1008.8 - 5.2
17/05:01am 10.9 2.4 7.0 77 1.9 W 41 61 22 33 1008.5 - 5.2
17/05:00am 10.9 2.4 7.0 77 1.9 W 41 57 22 31 1008.6 - 5.2
17/04:47am 10.8 2.8 7.5 80 1.6 W 39 57 21 31 1008.7 - 5.2
17/04:30am 10.6 2.1 7.1 79 1.7 W 41 56 22 30 1008.6 - 5.2
17/04:00am 10.8 3.0 6.7 76 1.9 W 37 56 20 30 1008.5 - 5.2
17/03:30am 10.3 1.8 7.0 80 1.6 W 41 61 22 33 1008.6 - 5.2
17/03:22am 10.9 3.7 7.6 80 1.6 W 35 57 19 31 1008.6 - 5.0
17/03:00am 11.1 4.0 8.0 81 1.5 W 35 48 19 26 1008.9 1009.0 5.0
17/02:52am 11.1 4.9 8.0 81 1.5 W 30 48 16 26 1009.1 - 5.0
17/02:30am 11.0 4.8 7.9 81 1.5 W 30 44 16 24 1009.3 - 5.0
17/02:00am 10.9 6.0 8.3 84 1.3 W 24 41 13 22 1009.6 - 5.0
17/01:30am 10.9 6.8 8.5 85 1.2 W 20 30 11 16 1010.0 - 5.0
17/01:00am 10.6 6.6 8.2 85 1.2 W 19 28 10 15 1010.3 - 5.0
17/12:30am 10.8 6.3 8.4 85 1.2 W 22 33 12 18 1010.4 - 5.0
17/12:00am 10.8 6.8 8.2 84 1.3 W 19 30 10 16 1010.3 1010.4 5.0
 
Date/Time
EST
Temp
°C
App
Temp
°C
Dew
Point
Rel
Hum
%
Delta-T
°C
Wind Press
QNH
hPa
Press
MSL
hPa
Rain
since 9 am
mm
Dir
 
Spd
km/h
Gust
km/h
Spd
kts
Gust
kts
16/11:30pm 11.0 4.9 8.2 83 1.4 WSW 30 43 16 23 1010.5 - 5.0
16/11:00pm 11.2 3.4 8.4 83 1.4 WSW 39 43 21 23 1010.4 - 5.0
16/10:30pm 11.2 4.2 8.6 84 1.3 WSW 35 41 19 22 1010.5 - 5.0
16/10:00pm 11.1 3.4 8.7 85 1.2 SW 39 44 21 24 1010.5 - 5.0
16/09:30pm 10.9 5.6 8.5 85 1.2 SW 26 39 14 21 1010.3 - 5.0
16/09:06pm 10.9 7.8 8.8 87 1.0 S 15 44 8 24 1010.0 - 5.0
16/09:00pm 10.9 3.6 8.8 87 1.0 SW 37 48 20 26 1009.9 1010.0 5.0
16/08:48pm 11.0 5.5 9.1 88 1.0 SW 28 46 15 25 1009.7 - 5.0
16/08:30pm 11.1 6.0 9.2 88 1.0 SW 26 39 14 21 1009.8 - 5.0
16/08:00pm 11.1 7.8 9.4 89 0.9 SW 17 28 9 15 1009.4 - 5.0
16/07:30pm 11.4 7.6 9.8 90 0.8 S 20 28 11 15 1009.1 - 5.0
16/07:00pm 11.6 5.0 10.0 90 0.8 SW 35 39 19 21 1008.6 - 5.0
16/06:30pm 11.7 4.7 10.1 90 0.8 SW 37 41 20 22 1008.2 - 5.0
16/06:00pm 12.2 5.4 10.6 90 0.8 SW 37 43 20 23 1007.9 1008.0 5.0
16/05:52pm 12.2 5.1 10.8 91 0.7 WSW 39 43 21 23 1007.8 - 5.0
16/05:30pm 12.6 8.0 11.2 91 0.7 W 26 43 14 23 1008.0 - 5.0
16/05:00pm 12.7 7.0 11.3 91 0.7 WNW 32 43 17 23 1007.7 - 5.0
16/04:39pm 12.8 7.6 11.5 92 0.7 NW 30 48 16 26 1007.5 - 5.0
16/04:30pm 12.6 7.3 11.3 92 0.7 NW 30 39 16 21 1007.3 - 5.0
16/04:00pm 12.1 7.2 11.2 94 0.5 WNW 28 39 15 21 1007.4 - 4.8
16/03:30pm 11.9 8.4 11.0 94 0.5 W 20 32 11 17 1007.4 - 3.4
16/03:00pm 13.0 12.5 12.1 94 0.5 SSE 6 9 3 5 1007.3 1007.3 1.4
16/02:30pm 13.0 11.9 12.1 94 0.5 S 9 11 5 6 1007.4 - 1.4
16/02:00pm 13.1 13.8 12.2 94 0.5 CALM 0 0 0 0 1007.5 - 1.4

Other Formats:

Comma delimited format used in spreadsheet applications
http://www.bom.gov.au/fwo/IDV60801/IDV60801.94893.axf

JavaScript Object Notation format (JSON) in row-major order
http://www.bom.gov.au/fwo/IDV60801/IDV60801.94893.json